createdAt,value
2019-04-07T00:01:56.424Z,4.87
2019-04-07T00:04:27.371Z,7.37
2019-04-07T00:06:58.827Z,4.80
2019-04-07T00:09:29.911Z,15.88
2019-04-07T00:12:00.883Z,4.70
2019-04-07T00:14:31.814Z,9.25
2019-04-07T00:17:03.284Z,4.42
2019-04-07T00:19:34.218Z,4.92
2019-04-07T00:22:05.268Z,5.92
2019-04-07T00:24:36.512Z,9.10
2019-04-07T00:27:07.603Z,8.00
2019-04-07T00:29:38.905Z,5.08
2019-04-07T00:32:11.109Z,6.08
2019-04-07T00:34:42.382Z,6.67
2019-04-07T00:37:14.064Z,10.55
2019-04-07T00:39:45.132Z,4.67
2019-04-07T00:42:16.196Z,7.53
2019-04-07T00:44:48.187Z,10.32
2019-04-07T00:47:19.556Z,7.15
2019-04-07T00:49:51.237Z,5.25
2019-04-07T00:52:23.889Z,9.88
2019-04-07T00:54:54.816Z,6.58
2019-04-07T00:57:26.322Z,6.97
2019-04-07T00:59:57.487Z,5.65
2019-04-07T01:02:28.590Z,6.42
2019-04-07T01:04:59.914Z,7.97
2019-04-07T01:07:31.044Z,6.75
2019-04-07T01:10:02.190Z,6.00
2019-04-07T01:12:33.633Z,8.53
2019-04-07T01:15:07.678Z,10.05
2019-04-07T01:17:39.215Z,8.60
2019-04-07T01:20:10.821Z,10.35
2019-04-07T01:22:42.001Z,8.00
2019-04-07T01:25:13.814Z,6.53
2019-04-07T01:27:45.478Z,9.15
2019-04-07T01:30:17.187Z,9.18
2019-04-07T01:32:48.392Z,9.78
2019-04-07T01:35:20.243Z,9.40
2019-04-07T01:37:51.781Z,14.03
2019-04-07T01:40:23.506Z,12.28
2019-04-07T01:42:59.780Z,9.18
2019-04-07T01:45:32.422Z,11.68
2019-04-07T01:48:18.201Z,9.63
2019-04-07T01:51:10.294Z,10.75
2019-04-07T01:53:47.114Z,8.70
2019-04-07T01:56:26.147Z,10.70
2019-04-07T01:58:58.865Z,9.25
2019-04-07T02:01:48.093Z,11.05
2019-04-07T02:04:28.076Z,20.75
2019-04-07T02:07:19.484Z,11.45
2019-04-07T02:09:52.304Z,14.18
2019-04-07T02:12:38.331Z,10.28
2019-04-07T02:15:11.338Z,10.32
2019-04-07T02:17:56.050Z,14.50
2019-04-07T02:20:45.339Z,16.62
2019-04-07T02:23:17.922Z,12.45
2019-04-07T02:25:53.509Z,19.87
2019-04-07T02:28:26.451Z,11.30
2019-04-07T02:31:09.628Z,14.35
2019-04-07T02:33:43.835Z,10.85
2019-04-07T02:36:23.935Z,9.83
2019-04-07T02:39:02.816Z,11.43
2019-04-07T02:41:36.431Z,12.05
2019-04-07T02:44:09.288Z,13.08
2019-04-07T02:46:51.627Z,12.37
2019-04-07T02:49:33.873Z,13.32
2019-04-07T02:52:12.619Z,14.78
2019-04-07T02:55:02.451Z,12.85
2019-04-07T02:57:35.981Z,12.98
2019-04-07T03:00:10.326Z,12.55
2019-04-07T03:02:45.820Z,13.90
2019-04-07T03:05:28.123Z,11.48
2019-04-07T03:08:01.571Z,14.83
2019-04-07T03:10:44.151Z,10.90
2019-04-07T03:13:33.000Z,13.32
2019-04-07T03:16:14.795Z,13.28
2019-04-07T03:19:06.600Z,11.40
2019-04-07T03:21:42.489Z,12.10
2019-04-07T03:24:21.082Z,12.85
2019-04-07T03:27:08.055Z,12.35
2019-04-07T03:29:55.748Z,18.25
2019-04-07T03:32:48.415Z,11.25
2019-04-07T03:35:34.104Z,11.85
2019-04-07T03:38:20.839Z,26.68
2019-04-07T03:40:56.956Z,13.35
2019-04-07T03:43:44.008Z,11.25
2019-04-07T03:46:22.435Z,13.05
2019-04-07T03:48:58.116Z,10.78
2019-04-07T03:51:30.633Z,11.03
2019-04-07T03:54:01.297Z,18.82
2019-04-07T03:56:37.266Z,10.20
2019-04-07T03:59:21.831Z,9.35
2019-04-07T04:01:58.072Z,12.93
2019-04-07T04:04:43.651Z,12.58
2019-04-07T04:07:29.214Z,11.35
2019-04-07T04:09:55.892Z,12.70
2019-04-07T04:12:37.576Z,9.63
2019-04-07T04:15:15.105Z,9.50
2019-04-07T04:17:46.261Z,13.13
2019-04-07T04:20:17.330Z,11.18
2019-04-07T04:22:48.575Z,10.70
2019-04-07T04:25:19.775Z,14.15
2019-04-07T04:27:51.046Z,10.95
2019-04-07T04:30:22.311Z,11.35
2019-04-07T04:32:54.014Z,12.95
2019-04-07T04:35:25.226Z,12.10
2019-04-07T04:37:56.585Z,11.38
2019-04-07T04:40:28.095Z,10.23
2019-04-07T04:42:59.331Z,13.65
2019-04-07T04:45:30.385Z,12.68
2019-04-07T04:48:02.565Z,9.38
2019-04-07T04:50:33.766Z,12.18
2019-04-07T04:53:04.735Z,16.95
2019-04-07T04:55:35.682Z,17.07
2019-04-07T04:58:07.274Z,9.10
2019-04-07T05:00:38.522Z,14.43
2019-04-07T05:03:09.771Z,11.55
2019-04-07T05:05:41.365Z,10.58
2019-04-07T05:08:12.858Z,12.60
2019-04-07T05:10:44.040Z,8.88
2019-04-07T05:13:15.000Z,40.08
2019-04-07T05:15:45.946Z,29.25
2019-04-07T05:18:17.441Z,13.53
2019-04-07T05:20:48.736Z,13.28
2019-04-07T05:23:20.398Z,18.10
2019-04-07T05:25:51.593Z,10.10
2019-04-07T05:28:22.776Z,14.70
2019-04-07T05:30:54.295Z,12.18
2019-04-07T05:33:25.498Z,10.88
2019-04-07T05:35:56.657Z,10.72
2019-04-07T05:38:27.730Z,10.63
2019-04-07T05:40:58.717Z,11.45
2019-04-07T05:43:29.714Z,13.25
2019-04-07T05:46:00.859Z,12.35
2019-04-07T05:48:32.617Z,14.25
2019-04-07T05:51:04.338Z,11.83
2019-04-07T05:53:35.348Z,9.98
2019-04-07T05:56:06.329Z,12.53
2019-04-07T05:58:38.676Z,25.82
2019-04-07T06:01:10.687Z,9.50
2019-04-07T06:03:43.523Z,8.53
2019-04-07T06:06:15.828Z,9.98
2019-04-07T06:08:48.467Z,10.88
2019-04-07T06:11:20.415Z,10.00
2019-04-07T06:13:51.931Z,12.10
2019-04-07T06:16:23.750Z,13.28
2019-04-07T06:18:55.494Z,14.10
2019-04-07T06:21:27.746Z,12.05
2019-04-07T06:24:00.598Z,11.80
2019-04-07T06:26:31.517Z,10.15
2019-04-07T06:29:02.651Z,12.98
2019-04-07T06:31:34.023Z,14.58
2019-04-07T06:34:08.172Z,11.45
2019-04-07T06:36:38.717Z,12.93
2019-04-07T06:39:09.870Z,12.47
2019-04-07T06:41:40.968Z,15.10
2019-04-07T06:44:15.867Z,10.50
2019-04-07T06:46:46.952Z,11.10
2019-04-07T06:49:19.704Z,12.53
2019-04-07T06:52:09.346Z,15.18
2019-04-07T06:54:57.281Z,10.23
2019-04-07T06:57:46.618Z,12.70
2019-04-07T07:00:36.423Z,10.05
2019-04-07T07:03:25.405Z,8.88
2019-04-07T07:06:05.676Z,10.13
2019-04-07T07:08:45.881Z,13.53
2019-04-07T07:11:26.458Z,13.88
2019-04-07T07:13:54.641Z,13.62
2019-04-07T07:16:30.820Z,11.93
2019-04-07T07:19:02.150Z,12.07
2019-04-07T07:21:48.994Z,8.08
2019-04-07T07:24:24.996Z,9.88
2019-04-07T07:26:52.936Z,10.80
2019-04-07T07:29:26.529Z,8.40
2019-04-07T07:32:02.518Z,9.53
2019-04-07T07:34:29.514Z,10.55
2019-04-07T07:37:00.635Z,11.03
2019-04-07T07:39:31.652Z,11.93
2019-04-07T07:42:02.931Z,8.03
2019-04-07T07:44:38.189Z,14.68
2019-04-07T07:47:07.966Z,10.82
2019-04-07T07:49:40.330Z,6.78
2019-04-07T07:52:11.697Z,9.50
2019-04-07T07:54:45.180Z,9.70
2019-04-07T07:57:16.104Z,10.55
2019-04-07T07:59:47.307Z,9.65
2019-04-07T08:02:19.935Z,9.00
2019-04-07T08:04:51.134Z,12.10
2019-04-07T08:07:22.177Z,9.28
2019-04-07T08:09:54.448Z,9.70
2019-04-07T08:12:25.811Z,14.78
2019-04-07T08:14:58.326Z,7.92
2019-04-07T08:17:31.650Z,8.05
2019-04-07T08:20:02.480Z,7.85
2019-04-07T08:22:39.576Z,12.00
2019-04-07T08:25:06.933Z,8.00
2019-04-07T08:27:37.875Z,8.05
2019-04-07T08:30:12.733Z,8.18
2019-04-07T08:32:43.219Z,10.18
2019-04-07T08:35:14.456Z,10.55
2019-04-07T08:37:46.486Z,10.10
2019-04-07T08:40:18.804Z,7.70
2019-04-07T08:42:50.221Z,11.40
2019-04-07T08:45:23.091Z,9.55
2019-04-07T08:47:54.075Z,17.32
2019-04-07T08:50:27.703Z,9.43
2019-04-07T08:52:57.918Z,12.55
2019-04-07T08:55:29.852Z,10.65
2019-04-07T08:58:03.683Z,33.95
2019-04-07T09:00:35.133Z,16.00
2019-04-07T09:03:12.008Z,20.37
2019-04-07T09:05:38.774Z,14.78
2019-04-07T09:08:09.728Z,19.02
2019-04-07T09:10:42.954Z,13.10
2019-04-07T09:13:14.026Z,14.05
2019-04-07T09:16:03.572Z,12.80
2019-04-07T09:18:38.970Z,20.48
2019-04-07T09:21:33.657Z,24.00
2019-04-07T09:24:02.154Z,21.55
2019-04-07T09:26:35.467Z,15.45
2019-04-07T09:29:11.611Z,18.95
2019-04-07T09:32:00.475Z,27.48
2019-04-07T09:34:34.566Z,26.50
2019-04-07T09:37:24.416Z,30.60
2019-04-07T09:40:17.397Z,28.62
2019-04-07T09:42:51.849Z,26.42
2019-04-07T09:45:32.357Z,30.10
2019-04-07T09:48:08.799Z,36.70
2019-04-07T09:50:45.988Z,31.40
2019-04-07T09:53:25.878Z,24.63
2019-04-07T09:56:01.589Z,28.85
2019-04-07T09:58:34.151Z,38.48
2019-04-07T10:01:07.807Z,34.88
2019-04-07T10:03:40.835Z,39.38
2019-04-07T10:06:22.585Z,36.53
2019-04-07T10:09:11.680Z,39.35
2019-04-07T10:11:57.417Z,37.00
2019-04-07T10:14:36.269Z,35.92
2019-04-07T10:17:17.902Z,38.33
2019-04-07T10:19:51.759Z,39.88
2019-04-07T10:22:28.806Z,40.60
2019-04-07T10:25:04.492Z,35.05
2019-04-07T10:27:54.368Z,36.00
2019-04-07T10:30:25.974Z,39.10
2019-04-07T10:32:58.632Z,39.13
2019-04-07T10:35:29.605Z,39.40
2019-04-07T10:38:02.028Z,36.90
2019-04-07T10:40:33.642Z,41.90
2019-04-07T10:43:07.197Z,42.60
2019-04-07T10:45:40.524Z,39.00
2019-04-07T10:48:13.439Z,34.80
2019-04-07T10:50:46.908Z,37.70
2019-04-07T10:53:22.750Z,41.17
2019-04-07T10:55:56.324Z,34.93
2019-04-07T10:58:31.258Z,36.83
2019-04-07T11:01:06.866Z,33.57
2019-04-07T11:03:39.511Z,44.03
2019-04-07T11:06:28.445Z,34.13
2019-04-07T11:09:17.774Z,36.67
2019-04-07T11:11:51.124Z,42.73
2019-04-07T11:14:39.981Z,45.60
2019-04-07T11:17:22.549Z,44.57
2019-04-07T11:20:03.501Z,43.30
2019-04-07T11:22:52.110Z,40.17
2019-04-07T11:25:30.448Z,44.47
2019-04-07T11:28:03.020Z,35.63
2019-04-07T11:30:38.715Z,39.30
2019-04-07T11:33:11.757Z,45.47
2019-04-07T11:36:00.770Z,38.60
2019-04-07T11:38:34.082Z,37.33
2019-04-07T11:41:05.842Z,40.20
2019-04-07T11:43:44.446Z,39.40
2019-04-07T11:46:15.349Z,36.83
2019-04-07T11:49:04.423Z,32.83
2019-04-07T11:51:40.697Z,36.90
2019-04-07T11:54:24.083Z,38.50
2019-04-07T11:56:57.343Z,37.23
2019-04-07T11:59:46.372Z,39.80
2019-04-07T12:02:24.944Z,36.30
2019-04-07T12:05:08.192Z,31.17
2019-04-07T12:07:56.476Z,35.77
2019-04-07T12:10:31.855Z,30.77
2019-04-07T12:13:14.360Z,35.77
2019-04-07T12:15:46.992Z,29.83
2019-04-07T12:18:18.913Z,32.27
2019-04-07T12:20:54.910Z,36.53
2019-04-07T12:23:44.399Z,35.50
2019-04-07T12:26:22.920Z,30.87
2019-04-07T12:28:53.958Z,32.47
2019-04-07T12:31:35.869Z,33.50
2019-04-07T12:34:17.859Z,33.00
2019-04-07T12:36:54.158Z,33.23
2019-04-07T12:39:25.627Z,34.10
2019-04-07T12:41:59.425Z,32.90
2019-04-07T12:44:33.316Z,36.23
2019-04-07T12:47:18.166Z,28.80
2019-04-07T12:50:05.957Z,33.50
2019-04-07T12:52:42.159Z,30.37
2019-04-07T12:55:17.726Z,25.90
2019-04-07T12:58:02.052Z,31.33
2019-04-07T13:00:53.686Z,29.50
2019-04-07T13:03:16.901Z,31.70
2019-04-07T13:05:47.686Z,34.30
2019-04-07T13:08:26.332Z,35.47
2019-04-07T13:11:07.505Z,32.87
2019-04-07T13:13:53.893Z,31.37
2019-04-07T13:16:35.915Z,30.97
2019-04-07T13:19:25.317Z,28.53
2019-04-07T13:22:02.224Z,28.80
2019-04-07T13:24:51.339Z,27.47
2019-04-07T13:27:32.635Z,26.90
2019-04-07T13:30:23.513Z,25.83
2019-04-07T13:33:04.906Z,25.90
2019-04-07T13:35:40.128Z,30.37
2019-04-07T13:38:28.256Z,26.57
2019-04-07T13:40:59.481Z,23.20
2019-04-07T13:43:42.682Z,26.43
2019-04-07T13:46:27.859Z,25.03
2019-04-07T13:49:13.906Z,25.73
2019-04-07T13:52:02.732Z,23.40
2019-04-07T13:54:48.400Z,24.37
2019-04-07T13:57:28.234Z,22.13
2019-04-07T14:00:17.261Z,20.03
2019-04-07T14:03:01.969Z,18.20
2019-04-07T14:05:52.434Z,17.70
2019-04-07T14:08:43.812Z,15.30
2019-04-07T14:11:27.383Z,16.53
2019-04-07T14:14:05.684Z,17.33
2019-04-07T14:16:54.805Z,14.97
2019-04-07T14:19:25.452Z,15.87
2019-04-07T14:22:08.955Z,14.20
2019-04-07T14:24:43.648Z,28.50
2019-04-07T14:27:18.726Z,13.93
2019-04-07T14:30:11.566Z,10.17
2019-04-07T14:32:47.213Z,26.03
2019-04-07T14:35:19.466Z,11.97
2019-04-07T14:37:59.386Z,10.77
2019-04-07T14:40:32.042Z,14.50
2019-04-07T14:43:08.166Z,12.07
2019-04-07T14:45:46.648Z,12.43
2019-04-07T14:48:30.106Z,12.70
2019-04-07T14:51:19.651Z,16.13
2019-04-07T14:53:53.025Z,15.00
2019-04-07T14:56:28.840Z,15.30
2019-04-07T14:59:01.833Z,15.67
2019-04-07T15:01:47.910Z,15.83
2019-04-07T15:04:19.337Z,22.60
2019-04-07T15:06:51.964Z,15.00
2019-04-07T15:09:30.578Z,13.83
2019-04-07T15:12:15.466Z,14.33
2019-04-07T15:14:36.043Z,20.00
2019-04-07T15:17:07.797Z,35.63
2019-04-07T15:19:39.744Z,14.13
2019-04-07T15:22:10.923Z,21.27
2019-04-07T15:24:42.741Z,17.40
2019-04-07T15:27:14.397Z,14.60
2019-04-07T15:29:46.789Z,14.80
2019-04-07T15:32:21.180Z,19.43
2019-04-07T15:34:52.539Z,16.23
2019-04-07T15:37:24.950Z,25.33
2019-04-07T15:39:58.959Z,22.63
2019-04-07T15:42:37.750Z,25.23
2019-04-07T15:45:02.472Z,19.60
2019-04-07T15:47:33.601Z,25.40
2019-04-07T15:50:06.085Z,19.53
2019-04-07T15:52:37.072Z,17.60
2019-04-07T15:55:08.753Z,16.00
2019-04-07T15:57:40.669Z,18.83
2019-04-07T16:00:13.401Z,17.70
2019-04-07T16:02:44.547Z,21.00
2019-04-07T16:05:15.967Z,22.87
2019-04-07T16:07:48.066Z,22.17
2019-04-07T16:10:22.841Z,19.30
2019-04-07T16:12:54.369Z,20.53
2019-04-07T16:15:26.170Z,22.33
2019-04-07T16:17:57.242Z,24.20
2019-04-07T16:20:32.473Z,23.57
2019-04-07T16:23:00.937Z,20.90
2019-04-07T16:25:32.256Z,21.00
2019-04-07T16:28:03.604Z,22.63
2019-04-07T16:30:34.635Z,22.63
2019-04-07T16:33:05.704Z,21.20
2019-04-07T16:35:36.874Z,24.23
2019-04-07T16:38:07.901Z,21.00
2019-04-07T16:40:41.353Z,26.47
2019-04-07T16:43:15.420Z,27.17
2019-04-07T16:45:45.832Z,30.13
2019-04-07T16:48:16.887Z,23.73
2019-04-07T16:50:51.099Z,22.33
2019-04-07T16:53:20.581Z,18.70
2019-04-07T16:55:55.081Z,18.00
2019-04-07T16:58:24.546Z,17.80
2019-04-07T17:00:56.027Z,18.77
2019-04-07T17:03:27.556Z,22.70
2019-04-07T17:06:01.223Z,37.37
2019-04-07T17:08:31.838Z,24.63
2019-04-07T17:11:07.854Z,20.20
2019-04-07T17:13:41.375Z,18.07
2019-04-07T17:16:12.234Z,14.67
2019-04-07T17:18:44.271Z,18.83
2019-04-07T17:21:20.445Z,18.77
2019-04-07T17:23:55.422Z,20.30
2019-04-07T17:26:24.270Z,19.23
2019-04-07T17:28:56.783Z,16.50
2019-04-07T17:31:31.822Z,19.20
2019-04-07T17:34:03.584Z,24.15
2019-04-07T17:36:34.286Z,21.05
2019-04-07T17:39:22.867Z,20.57
2019-04-07T17:41:57.231Z,21.17
2019-04-07T17:44:32.913Z,21.02
2019-04-07T17:47:05.442Z,20.97
2019-04-07T17:49:38.993Z,19.30
2019-04-07T17:52:26.604Z,20.10
2019-04-07T17:55:00.112Z,22.62
2019-04-07T17:57:51.078Z,21.45
2019-04-07T18:00:21.930Z,22.55
2019-04-07T18:02:57.173Z,23.73
2019-04-07T18:05:29.855Z,18.92
2019-04-07T18:08:00.611Z,21.20
2019-04-07T18:10:33.181Z,19.37
2019-04-07T18:13:24.773Z,20.72
2019-04-07T18:16:00.974Z,22.42
2019-04-07T18:18:39.594Z,20.82
2019-04-07T18:21:19.288Z,28.70
2019-04-07T18:24:10.498Z,17.12
2019-04-07T18:26:58.351Z,25.32
2019-04-07T18:29:34.246Z,24.65
2019-04-07T18:32:05.106Z,26.25
2019-04-07T18:34:36.498Z,21.65
2019-04-07T18:37:18.259Z,20.15
2019-04-07T18:40:06.727Z,19.95
2019-04-07T18:42:45.617Z,21.50
2019-04-07T18:45:21.729Z,20.92
2019-04-07T18:47:59.533Z,23.02
2019-04-07T18:50:30.733Z,18.75
2019-04-07T18:53:10.328Z,27.42
2019-04-07T18:55:59.515Z,21.48
2019-04-07T18:58:50.869Z,20.43
2019-04-07T19:01:24.362Z,19.70
2019-04-07T19:04:10.075Z,19.70
2019-04-07T19:06:46.091Z,18.92
2019-04-07T19:09:29.192Z,23.35
2019-04-07T19:12:16.672Z,20.50
2019-04-07T19:14:57.120Z,26.27
2019-04-07T19:17:40.475Z,18.48
2019-04-07T19:20:26.032Z,22.52
2019-04-07T19:23:02.395Z,26.50
2019-04-07T19:25:53.218Z,23.60
2019-04-07T19:28:23.878Z,27.27
2019-04-07T19:30:57.731Z,26.60
2019-04-07T19:33:42.265Z,24.10
2019-04-07T19:36:21.344Z,23.40
2019-04-07T19:38:58.456Z,24.70
2019-04-07T19:41:33.565Z,26.60
2019-04-07T19:44:34.023Z,28.30
2019-04-07T19:46:59.091Z,23.07
2019-04-07T19:49:29.637Z,23.27
2019-04-07T19:52:12.525Z,25.68
2019-04-07T19:55:01.671Z,35.55
2019-04-07T19:57:37.281Z,24.40
2019-04-07T20:00:14.676Z,28.52
2019-04-07T20:03:07.488Z,25.27
2019-04-07T20:05:50.883Z,27.75
2019-04-07T20:08:39.519Z,29.92
2019-04-07T20:11:16.643Z,29.75
2019-04-07T20:13:49.288Z,37.93
2019-04-07T20:16:28.321Z,25.15
2019-04-07T20:19:17.119Z,29.52
2019-04-07T20:21:55.114Z,24.75
2019-04-07T20:24:27.577Z,23.77
2019-04-07T20:27:04.075Z,26.62
2019-04-07T20:29:41.381Z,27.77
2019-04-07T20:32:16.543Z,25.32
2019-04-07T20:34:54.989Z,24.72
2019-04-07T20:37:30.590Z,24.50
2019-04-07T20:40:06.982Z,27.98
2019-04-07T20:42:40.711Z,23.30
2019-04-07T20:45:29.818Z,27.07
2019-04-07T20:48:13.587Z,23.38
2019-04-07T20:50:50.325Z,29.10
2019-04-07T20:53:28.295Z,26.10
2019-04-07T20:56:02.778Z,29.23
2019-04-07T20:58:56.665Z,31.77
2019-04-07T21:01:44.578Z,31.40
2019-04-07T21:04:17.944Z,37.42
2019-04-07T21:06:59.896Z,44.25
2019-04-07T21:09:35.852Z,49.98
2019-04-07T21:12:12.750Z,54.33
2019-04-07T21:15:04.527Z,47.43
2019-04-07T21:17:31.587Z,44.90
2019-04-07T21:20:11.897Z,45.15
2019-04-07T21:22:47.799Z,43.70
2019-04-07T21:25:23.787Z,48.78
2019-04-07T21:27:54.805Z,51.23
2019-04-07T21:30:44.093Z,50.58
2019-04-07T21:33:22.378Z,46.53
2019-04-07T21:36:08.144Z,43.68
2019-04-07T21:38:58.327Z,54.88
2019-04-07T21:41:47.864Z,51.55
2019-04-07T21:44:27.044Z,49.50
2019-04-07T21:47:12.544Z,52.98
2019-04-07T21:49:45.818Z,52.33
2019-04-07T21:52:20.948Z,53.33
2019-04-07T21:54:53.560Z,50.25
2019-04-07T21:57:24.378Z,53.20
2019-04-07T22:00:13.422Z,52.48
2019-04-07T22:02:55.940Z,52.40
2019-04-07T22:05:31.548Z,48.38
2019-04-07T22:08:10.204Z,47.80
2019-04-07T22:10:36.851Z,65.80
2019-04-07T22:13:08.327Z,55.20
2019-04-07T22:15:45.838Z,58.68
2019-04-07T22:18:13.128Z,46.28
2019-04-07T22:20:44.144Z,47.65
2019-04-07T22:23:15.122Z,46.33
2019-04-07T22:25:51.560Z,49.10
2019-04-07T22:28:22.801Z,43.42
2019-04-07T22:30:55.284Z,39.00
2019-04-07T22:33:30.010Z,45.23
2019-04-07T22:35:59.707Z,39.85
2019-04-07T22:38:31.527Z,40.23
2019-04-07T22:41:02.755Z,45.75
2019-04-07T22:43:34.934Z,49.25
2019-04-07T22:46:16.480Z,42.23
2019-04-07T22:48:38.794Z,48.45
2019-04-07T22:51:12.387Z,44.90
2019-04-07T22:53:43.316Z,48.68
2019-04-07T22:56:14.386Z,37.13
2019-04-07T22:58:46.436Z,31.85
2019-04-07T23:01:17.490Z,32.25
2019-04-07T23:03:49.627Z,37.50
2019-04-07T23:06:21.082Z,36.40
2019-04-07T23:08:53.033Z,38.90
2019-04-07T23:11:24.148Z,41.20
2019-04-07T23:13:55.526Z,46.13
2019-04-07T23:16:27.524Z,41.68
2019-04-07T23:18:58.622Z,47.27
2019-04-07T23:21:30.055Z,46.28
2019-04-07T23:24:04.240Z,43.83
2019-04-07T23:26:35.329Z,48.05
2019-04-07T23:29:06.424Z,48.92
2019-04-07T23:31:38.382Z,59.73
2019-04-07T23:34:10.502Z,53.92
2019-04-07T23:36:42.481Z,46.40
2019-04-07T23:39:13.587Z,47.25
2019-04-07T23:41:44.528Z,47.60
2019-04-07T23:44:16.074Z,58.30
2019-04-07T23:46:47.711Z,40.00
2019-04-07T23:49:19.075Z,51.83
2019-04-07T23:51:51.050Z,45.75
2019-04-07T23:54:22.589Z,49.55
2019-04-07T23:56:54.158Z,48.52
2019-04-07T23:59:27.089Z,44.00
